Time;durP1;ratioP1;P1;durP2;ratioP2;P2;SDS_P1;SDS_P2;PMS_P1;PMS_P2;Temp;Humidity;BMP_temperature;BMP_pressure;BME280_temperature;BME280_humidity;BME280_pressure;Samples;Min_cycle;Max_cycle;Signal;HPM_P1;HPM_P2
2023/03/04 00:02:22;;;;;;;54.03;17.67;;;0.20;99.90;;;0.93;100.00;98872.91;5043070;28;20462;-75
2023/03/04 00:04:52;;;;;;;52.77;18.80;;;0.00;99.90;;;0.90;100.00;98870.56;5041521;28;20469;-76
2023/03/04 00:07:24;;;;;;;60.80;19.93;;;0.00;99.90;;;0.90;100.00;98880.84;5043012;28;20523;-75
2023/03/04 00:09:54;;;;;;;48.57;17.47;;;-0.10;99.90;;;0.96;100.00;98883.00;5040712;28;20486;-75
2023/03/04 00:12:23;;;;;;;45.50;17.37;;;0.00;99.90;;;0.92;100.00;98879.00;5041665;28;20497;-75
2023/03/04 00:14:54;;;;;;;54.77;17.00;;;0.00;99.90;;;0.89;100.00;98881.78;5040525;28;20522;-75
2023/03/04 00:17:24;;;;;;;43.97;15.93;;;0.00;99.90;;;0.83;100.00;98877.06;5040946;28;20461;-75
2023/03/04 00:19:55;;;;;;;43.80;18.13;;;-0.10;99.90;;;0.75;100.00;98881.91;5039343;28;20472;-75
2023/03/04 00:22:27;;;;;;;55.93;18.80;;;-0.20;99.90;;;0.70;100.00;98878.81;5040940;28;20523;-75
2023/03/04 00:24:57;;;;;;;44.77;18.17;;;-0.30;99.90;;;0.72;100.00;98882.13;5046046;28;21535;-75
2023/03/04 00:27:27;;;;;;;54.33;18.90;;;-0.20;99.90;;;0.73;100.00;98879.41;5045565;28;20964;-76
2023/03/04 00:29:57;;;;;;;50.47;17.90;;;-0.20;99.90;;;0.76;100.00;98883.56;5045886;28;20970;-75
2023/03/04 00:32:27;;;;;;;58.17;19.10;;;-0.20;99.90;;;0.75;100.00;98879.31;5045592;28;22121;-76
2023/03/04 00:34:55;;;;;;;47.00;16.57;;;-0.10;99.90;;;0.75;100.00;98877.59;5045691;28;20463;-75
2023/03/04 00:37:25;;;;;;;56.73;16.93;;;-0.10;99.90;;;0.75;100.00;98875.00;5043894;28;20478;-75
2023/03/04 00:39:56;;;;;;;38.80;16.60;;;-0.20;99.90;;;0.74;100.00;98875.09;5046473;28;20676;-75
2023/03/04 00:42:27;;;;;;;50.07;18.57;;;-0.20;99.90;;;0.70;100.00;98876.22;5043461;28;20474;-75
2023/03/04 00:44:56;;;;;;;59.30;18.30;;;-0.30;99.90;;;0.61;100.00;98879.44;5044245;28;21052;-75
2023/03/04 00:47:25;;;;;;;50.27;18.83;;;-0.40;99.90;;;0.57;100.00;98867.72;5043015;28;20480;-75
2023/03/04 00:49:56;;;;;;;47.40;18.80;;;-0.40;99.90;;;0.54;100.00;98868.75;5044858;28;20480;-75
2023/03/04 00:52:28;;;;;;;53.63;19.30;;;-0.40;99.90;;;0.57;100.00;98867.72;5044657;28;20500;-75
2023/03/04 00:54:58;;;;;;;52.03;20.10;;;-0.40;99.90;;;0.57;100.00;98867.72;5044239;28;20550;-75
2023/03/04 00:57:27;;;;;;;45.13;16.13;;;-0.40;99.90;;;0.53;100.00;98867.09;5045003;28;20530;-76
2023/03/04 00:59:57;;;;;;;47.97;18.10;;;-0.40;99.90;;;0.49;100.00;98863.91;5045283;28;21015;-75
2023/03/04 01:02:26;;;;;;;51.30;19.30;;;-0.40;99.90;;;0.42;100.00;98857.53;5042671;28;20498;-75
2023/03/04 01:04:56;;;;;;;54.00;18.70;;;-0.50;99.90;;;0.34;100.00;98853.84;5042792;28;20465;-75
2023/03/04 01:07:27;;;;;;;43.87;17.17;;;-0.50;99.90;;;0.29;100.00;98854.13;5045092;28;20543;-76
2023/03/04 01:09:58;;;;;;;60.70;18.87;;;-0.70;99.90;;;0.27;100.00;98856.00;5044023;28;20546;-75
2023/03/04 01:12:28;;;;;;;49.60;17.97;;;-0.70;99.90;;;0.24;100.00;98861.34;5041950;28;20499;-75
2023/03/04 01:14:59;;;;;;;53.43;16.47;;;-0.70;99.90;;;0.25;100.00;98857.84;5042586;28;20569;-75
2023/03/04 01:17:29;;;;;;;50.63;17.37;;;-0.70;99.90;;;0.27;100.00;98861.16;5043105;28;20555;-75
2023/03/04 01:19:59;;;;;;;56.57;18.23;;;-0.60;99.90;;;0.24;100.00;98860.53;5044907;28;20472;-75
2023/03/04 01:22:30;;;;;;;43.83;16.73;;;-0.70;99.90;;;0.28;100.00;98852.47;5046120;28;21034;-75
2023/03/04 01:24:59;;;;;;;48.30;17.97;;;-0.60;99.90;;;0.29;100.00;98864.44;5046491;28;20946;-76
2023/03/04 01:27:29;;;;;;;45.10;16.67;;;-0.60;99.90;;;0.25;100.00;98862.97;5047507;28;20476;-75
2023/03/04 01:29:58;;;;;;;53.17;17.00;;;-0.70;99.90;;;0.32;100.00;98864.22;5046569;28;20501;-75
2023/03/04 01:32:28;;;;;;;49.00;16.77;;;-0.50;99.90;;;0.26;100.00;98858.66;5045674;28;20558;-75
2023/03/04 01:34:57;;;;;;;48.57;18.13;;;-0.60;99.90;;;0.25;100.00;98862.16;5046007;28;20468;-75
2023/03/04 01:37:29;;;;;;;50.50;18.00;;;-0.60;99.90;;;0.22;100.00;98862.38;5046106;28;20506;-75
2023/03/04 01:39:57;;;;;;;51.37;20.43;;;-0.70;99.90;;;0.14;100.00;98855.16;5045974;28;20473;-75
2023/03/04 01:42:33;;;;;;;56.20;17.97;;;-0.80;99.90;;;0.11;100.00;98857.94;5046532;28;20473;-75
2023/03/04 01:45:02;;;;;;;39.97;15.90;;;-0.80;99.90;;;0.12;100.00;98856.19;5045183;28;21031;-75
2023/03/04 01:47:35;;;;;;;52.33;19.13;;;-0.80;99.90;;;0.08;100.00;98850.44;5044664;28;20561;-75
2023/03/04 01:50:17;;;;;;;55.07;20.03;;;-0.80;99.90;;;0.12;100.00;98853.63;5038100;28;20461;-75
2023/03/04 01:52:47;;;;;;;58.77;19.50;;;-0.80;99.90;;;0.07;100.00;98848.78;5043651;28;20461;-76
2023/03/04 01:55:21;;;;;;;38.97;16.27;;;-0.80;99.90;;;0.12;100.00;98843.34;5043890;28;20488;-75
2023/03/04 01:57:52;;;;;;;47.90;17.50;;;-0.80;99.90;;;0.07;100.00;98842.84;5042959;28;20489;-75
2023/03/04 02:00:30;;;;;;;47.13;16.67;;;-0.90;99.90;;;0.08;100.00;98836.75;5043233;28;20484;-75
2023/03/04 02:03:06;;;;;;;49.97;18.03;;;-0.80;99.90;;;-0.01;100.00;98830.47;5042068;28;20465;-75
2023/03/04 02:05:38;;;;;;;57.47;16.60;;;-0.90;99.90;;;-0.10;100.00;98831.91;5044086;28;20471;-75
2023/03/04 02:08:10;;;;;;;42.33;15.93;;;-1.00;99.90;;;-0.04;100.00;98828.13;5042393;28;21168;-74
2023/03/04 02:10:43;;;;;;;49.43;17.00;;;-1.00;99.90;;;-0.09;100.00;98825.84;5042565;28;20461;-75
2023/03/04 02:13:12;;;;;;;36.33;15.47;;;-1.00;99.90;;;-0.06;100.00;98822.25;5044740;28;20474;-75
2023/03/04 02:15:42;;;;;;;51.73;18.10;;;-1.00;99.90;;;-0.05;100.00;98826.47;5043685;28;20472;-75
2023/03/04 02:18:17;;;;;;;63.30;18.30;;;-1.00;99.90;;;-0.08;100.00;98806.94;5043031;28;20545;-75
2023/03/04 02:21:04;;;;;;;52.93;17.57;;;-1.00;99.90;;;-0.10;100.00;98805.38;5044873;28;20932;-75
2023/03/04 02:23:47;;;;;;;59.07;17.53;;;-1.00;99.90;;;-0.20;100.00;98804.34;5045913;28;20453;-75
2023/03/04 02:26:20;;;;;;;54.23;17.90;;;-1.10;99.90;;;-0.14;100.00;98801.38;5043803;28;20530;-75
2023/03/04 02:28:53;;;;;;;42.87;18.40;;;-1.10;99.90;;;-0.17;100.00;98806.69;5044259;28;20465;-76
2023/03/04 02:31:32;;;;;;;46.20;17.57;;;-1.10;99.90;;;-0.22;100.00;98803.63;5044085;28;20549;-75
2023/03/04 02:34:06;;;;;;;49.93;17.93;;;-1.20;99.90;;;-0.16;100.00;98805.78;5046156;28;20551;-75
2023/03/04 02:36:36;;;;;;;53.10;17.70;;;-1.10;99.90;;;-0.19;100.00;98800.84;5043936;28;20559;-75
2023/03/04 02:39:13;;;;;;;56.10;19.33;;;-1.10;99.90;;;-0.17;100.00;98799.00;5045143;28;20851;-75
2023/03/04 02:41:44;;;;;;;47.47;17.13;;;-1.10;99.90;;;-0.18;100.00;98802.50;5045586;28;20553;-75
2023/03/04 02:44:20;;;;;;;45.03;17.13;;;-1.00;99.90;;;-0.18;100.00;98792.22;5044728;28;20823;-75
2023/03/04 02:46:52;;;;;;;55.50;19.60;;;-1.10;99.90;;;-0.21;100.00;98788.09;5044331;28;20550;-75
2023/03/04 02:49:24;;;;;;;38.73;18.00;;;-1.10;99.90;;;-0.22;100.00;98795.91;5040972;28;20978;-75
2023/03/04 02:52:00;;;;;;;53.67;18.00;;;-1.20;99.90;;;-0.25;100.00;98798.69;5040189;28;20560;-75
2023/03/04 02:54:29;;;;;;;51.53;18.60;;;-1.20;99.90;;;-0.23;100.00;98794.25;5042776;28;20467;-75
2023/03/04 02:57:02;;;;;;;48.87;18.40;;;-1.10;99.90;;;-0.22;100.00;98785.63;5042670;28;20547;-75
2023/03/04 02:59:32;;;;;;;49.70;19.07;;;-1.10;99.90;;;-0.22;100.00;98786.47;5042930;28;20960;-75
2023/03/04 03:02:01;;;;;;;44.63;17.87;;;-1.00;99.90;;;-0.17;100.00;98789.53;5040811;28;20465;-75
2023/03/04 03:04:32;;;;;;;45.73;17.70;;;-1.00;99.90;;;-0.13;100.00;98785.84;5041589;28;20465;-75
2023/03/04 03:07:01;;;;;;;53.73;19.20;;;-0.90;99.90;;;-0.15;100.00;98792.03;5042058;28;21044;-76
2023/03/04 03:09:31;;;;;;;50.10;16.40;;;-1.00;99.90;;;-0.13;100.00;98785.84;5041158;28;20472;-74
2023/03/04 03:12:01;;;;;;;43.87;17.20;;;-1.00;99.90;;;-0.13;100.00;98785.03;5041628;28;20970;-75
2023/03/04 03:14:30;;;;;;;44.60;16.90;;;-1.00;99.90;;;-0.14;100.00;98779.06;5043592;28;21019;-75
2023/03/04 03:17:00;;;;;;;46.77;16.93;;;-1.00;99.90;;;-0.12;100.00;98794.38;5041512;28;20493;-75
2023/03/04 03:19:30;;;;;;;52.10;17.17;;;-1.00;99.90;;;-0.11;100.00;98783.19;5042571;28;20466;-76
2023/03/04 03:22:01;;;;;;;52.43;18.60;;;-1.00;99.90;;;-0.07;100.00;98779.50;5044275;28;21031;-75
2023/03/04 03:24:32;;;;;;;48.57;16.80;;;-0.80;99.90;;;-0.06;100.00;98788.81;5044827;28;20471;-75
2023/03/04 03:27:02;;;;;;;51.80;17.20;;;-0.90;99.90;;;-0.06;100.00;98781.13;5044264;28;21051;-75
2023/03/04 03:29:32;;;;;;;48.73;16.57;;;-0.90;99.90;;;-0.08;100.00;98780.41;5043111;28;20457;-75
2023/03/04 03:32:00;;;;;;;43.70;15.73;;;-0.90;99.90;;;-0.05;100.00;98780.19;5044031;28;20497;-75
2023/03/04 03:34:29;;;;;;;43.90;16.07;;;-0.90;99.90;;;-0.11;100.00;98781.44;5043979;28;20475;-75
2023/03/04 03:36:59;;;;;;;54.90;16.53;;;-0.90;99.90;;;-0.07;100.00;98776.94;5039717;28;20485;-75
2023/03/04 03:39:30;;;;;;;55.97;19.30;;;-1.00;99.90;;;-0.05;100.00;98785.34;5041850;28;20484;-75
2023/03/04 03:42:01;;;;;;;65.80;17.20;;;-0.90;99.90;;;0.00;100.00;98776.38;5041463;28;20499;-75
2023/03/04 03:44:31;;;;;;;43.37;16.60;;;-0.80;99.90;;;0.01;100.00;98772.06;5040015;28;20461;-75
2023/03/04 03:47:00;;;;;;;53.70;18.00;;;-0.80;99.90;;;0.04;100.00;98771.03;5042482;28;21335;-75
2023/03/04 03:49:31;;;;;;;46.97;17.37;;;-0.80;99.90;;;-0.01;100.00;98776.50;5042930;28;20468;-75
2023/03/04 03:52:00;;;;;;;48.30;17.93;;;-0.80;99.90;;;-0.01;100.00;98779.91;5043641;28;20505;-73
2023/03/04 03:54:30;;;;;;;44.70;17.10;;;-0.80;99.90;;;-0.02;100.00;98782.56;5043815;28;20461;-75
2023/03/04 03:57:01;;;;;;;36.60;15.53;;;-0.90;99.90;;;0.04;100.00;98782.16;5040923;28;21300;-75
2023/03/04 03:59:31;;;;;;;52.60;17.17;;;-0.80;99.90;;;0.03;100.00;98771.97;5045729;28;20472;-75
2023/03/04 04:02:00;;;;;;;46.57;18.43;;;-0.80;99.90;;;-0.07;100.00;98776.94;5046145;28;20477;-75
2023/03/04 04:04:30;;;;;;;46.00;18.67;;;-0.90;99.90;;;-0.03;100.00;98776.59;5044583;28;20465;-75
2023/03/04 04:07:00;;;;;;;53.50;16.73;;;-0.90;99.90;;;0.04;100.00;98782.16;5044349;28;20468;-75
2023/03/04 04:09:29;;;;;;;51.60;18.10;;;-0.80;99.90;;;0.09;100.00;98774.13;5043894;28;21013;-75
2023/03/04 04:11:58;;;;;;;45.93;16.40;;;-0.70;99.90;;;-0.01;100.00;98768.78;5044174;28;20463;-76
2023/03/04 04:14:30;;;;;;;35.37;16.10;;;-0.80;99.90;;;0.06;100.00;98769.19;5044464;28;20476;-75
2023/03/04 04:17:00;;;;;;;40.37;16.40;;;-0.80;99.90;;;0.13;100.00;98766.13;5045297;28;20461;-76
2023/03/04 04:19:30;;;;;;;42.30;15.63;;;-0.70;99.90;;;0.09;100.00;98764.69;5047505;28;20469;-75
2023/03/04 04:21:59;;;;;;;37.13;14.70;;;-0.70;99.90;;;0.14;100.00;98770.31;5046777;28;20509;-75
2023/03/04 04:24:29;;;;;;;44.17;18.23;;;-0.60;99.90;;;0.14;100.00;98770.31;5047660;28;20523;-75
2023/03/04 04:26:57;;;;;;;42.43;15.27;;;-0.70;99.90;;;0.06;100.00;98770.03;5047256;28;20771;-75
2023/03/04 04:29:28;;;;;;;35.53;15.80;;;-0.80;99.90;;;0.09;100.00;98767.25;5047943;28;20907;-75
2023/03/04 04:31:57;;;;;;;42.17;14.90;;;-0.80;99.90;;;0.15;100.00;98778.84;5046998;28;20465;-75
2023/03/04 04:34:27;;;;;;;40.30;16.07;;;-0.60;99.90;;;0.16;100.00;98768.47;5047544;28;20548;-75
2023/03/04 04:36:57;;;;;;;41.97;16.80;;;-0.50;99.90;;;0.16;100.00;98767.66;5046025;28;20461;-75
2023/03/04 04:39:27;;;;;;;49.40;16.67;;;-0.60;99.90;;;0.17;100.00;98765.00;5048046;28;20487;-75
2023/03/04 04:41:56;;;;;;;39.93;16.23;;;-0.60;99.90;;;0.18;100.00;98773.50;5047595;28;20452;-75
2023/03/04 04:44:29;;;;;;;46.13;17.60;;;-0.60;99.90;;;0.21;100.00;98771.53;5047102;28;20527;-75
2023/03/04 04:46:59;;;;;;;38.07;14.90;;;-0.60;99.90;;;0.25;100.00;98769.59;5046634;28;20526;-75
2023/03/04 04:49:30;;;;;;;34.93;14.80;;;-0.50;99.90;;;0.27;100.00;98768.56;5046527;28;20471;-76
2023/03/04 04:52:00;;;;;;;38.27;13.83;;;-0.50;99.90;;;0.26;100.00;98759.22;5047236;28;20804;-75
2023/03/04 04:54:29;;;;;;;41.87;16.37;;;-0.50;99.90;;;0.30;100.00;98763.22;5047408;28;20495;-73
2023/03/04 04:56:59;;;;;;;43.63;16.57;;;-0.40;99.90;;;0.28;100.00;98761.66;5045930;28;20526;-75
2023/03/04 04:59:30;;;;;;;45.30;15.73;;;-0.40;99.90;;;0.27;100.00;98762.59;5045947;28;20500;-75
2023/03/04 05:01:59;;;;;;;40.90;17.50;;;-0.50;99.90;;;0.30;100.00;98763.22;5046776;28;20470;-75
2023/03/04 05:04:29;;;;;;;39.27;15.90;;;-0.40;99.90;;;0.32;100.00;98769.06;5046770;28;20467;-75
2023/03/04 05:06:59;;;;;;;44.50;16.07;;;-0.40;99.90;;;0.33;100.00;98765.56;5046369;28;20560;-75
2023/03/04 05:09:29;;;;;;;47.60;17.27;;;-0.40;99.90;;;0.32;100.00;98773.38;5046926;28;20457;-75
2023/03/04 05:11:58;;;;;;;38.07;15.33;;;-0.50;99.90;;;0.29;100.00;98766.72;5045433;28;20531;-75
2023/03/04 05:14:29;;;;;;;43.20;16.20;;;-0.50;99.90;;;0.35;100.00;98768.84;5045713;28;20989;-75
2023/03/04 05:16:59;;;;;;;47.27;19.90;;;-0.40;99.90;;;0.37;100.00;98764.44;5045588;28;20540;-76
2023/03/04 05:19:29;;;;;;;51.77;16.77;;;-0.40;99.90;;;0.45;100.00;98769.06;5044161;28;20505;-75
2023/03/04 05:21:59;;;;;;;41.47;16.57;;;-0.30;99.90;;;0.41;100.00;98758.16;5038760;28;21208;-75
2023/03/04 05:24:29;;;;;;;54.85;23.52;;;-0.30;99.90;;;0.48;100.00;98761.13;5037983;28;20514;-75
2023/03/04 05:26:59;;;;;;;45.33;17.40;;;-0.20;99.90;;;0.54;100.00;98765.84;5043733;28;20214;-72
2023/03/04 05:29:30;;;;;;;39.90;16.50;;;-0.20;99.90;;;0.56;100.00;98760.56;5044684;28;20873;-74
2023/03/04 05:32:00;;;;;;;49.17;18.40;;;-0.20;99.90;;;0.59;100.00;98768.09;5043171;28;20987;-74
2023/03/04 05:34:30;;;;;;;48.30;18.13;;;-0.20;99.90;;;0.59;100.00;98766.31;5042633;28;20496;-75
2023/03/04 05:37:00;;;;;;;48.50;17.97;;;-0.20;99.90;;;0.58;100.00;98762.13;5048024;28;20465;-75
2023/03/04 05:39:29;;;;;;;45.53;20.23;;;-0.20;99.90;;;0.62;100.00;98767.88;5050533;28;20616;-75
2023/03/04 05:41:58;;;;;;;43.80;18.50;;;-0.10;99.90;;;0.61;100.00;98777.34;5048020;28;20496;-75
2023/03/04 05:44:28;;;;;;;46.97;18.90;;;-0.20;99.90;;;0.61;100.00;98772.22;5048222;28;20457;-75
2023/03/04 05:46:59;;;;;;;48.93;18.80;;;-0.20;99.90;;;0.59;100.00;98773.25;5047053;28;20849;-75
2023/03/04 05:49:30;;;;;;;52.70;20.90;;;-0.20;99.90;;;0.62;100.00;98778.19;5047881;28;20497;-75
2023/03/04 05:52:00;;;;;;;48.47;18.47;;;-0.20;99.90;;;0.63;100.00;98777.22;5048222;28;20513;-75
2023/03/04 05:54:30;;;;;;;48.53;20.87;;;-0.10;99.90;;;0.66;100.00;98779.63;5048565;28;20538;-75
2023/03/04 05:56:59;;;;;;;42.47;17.63;;;-0.10;99.90;;;0.68;100.00;98776.00;5047182;28;20951;-75
2023/03/04 05:59:30;;;;;;;45.33;19.43;;;0.00;99.90;;;0.70;100.00;98766.41;5048441;28;20502;-75
2023/03/04 06:01:59;;;;;;;53.07;20.60;;;0.00;99.90;;;0.74;100.00;98773.00;5047134;28;20459;-75
2023/03/04 06:04:29;;;;;;;51.50;19.73;;;0.10;99.90;;;0.77;100.00;98777.09;5046859;28;20503;-75
2023/03/04 06:06:59;;;;;;;51.30;19.57;;;0.10;99.90;;;0.77;100.00;98772.75;5047557;28;20465;-75
2023/03/04 06:09:29;;;;;;;54.93;20.40;;;0.20;99.90;;;0.81;100.00;98770.81;5047996;28;20524;-75
2023/03/04 06:11:59;;;;;;;49.40;17.87;;;0.20;99.90;;;0.85;100.00;98772.22;5044986;28;21027;-75
2023/03/04 06:14:30;;;;;;;43.27;18.30;;;0.20;99.90;;;0.88;100.00;98779.72;5046309;28;20466;-75
2023/03/04 06:17:01;;;;;;;39.63;17.13;;;0.30;99.90;;;0.90;100.00;98777.91;5047988;28;20604;-75
2023/03/04 06:19:30;;;;;;;35.50;16.70;;;0.30;99.90;;;0.92;100.00;98779.41;5046587;28;20510;-75
2023/03/04 06:22:01;;;;;;;36.60;16.47;;;0.30;99.90;;;0.97;100.00;98782.47;5045937;28;20473;-75
2023/03/04 06:24:30;;;;;;;34.90;17.80;;;0.40;99.90;;;1.01;100.00;98783.06;5046688;28;20486;-75
2023/03/04 06:26:59;;;;;;;41.77;18.17;;;0.50;99.90;;;1.05;100.00;98791.41;5046710;28;20491;-75
2023/03/04 06:29:28;;;;;;;47.03;18.17;;;0.40;99.90;;;1.09;100.00;98791.09;5047570;28;20507;-75
2023/03/04 06:31:58;;;;;;;33.30;16.63;;;0.50;99.90;;;1.16;100.00;98792.28;5047385;28;20560;-75
2023/03/04 06:34:28;;;;;;;24.60;13.80;;;0.60;99.90;;;1.22;100.00;98794.41;5044824;28;20475;-75
2023/03/04 06:36:59;;;;;;;27.67;14.40;;;0.70;99.90;;;1.26;100.00;98798.44;5047255;28;20472;-75
2023/03/04 06:39:28;;;;;;;30.53;15.77;;;0.70;99.90;;;1.32;100.00;98797.19;5047198;28;20923;-75
2023/03/04 06:41:58;;;;;;;31.17;14.97;;;0.80;99.90;;;1.37;100.00;98802.81;5046130;28;20517;-75
2023/03/04 06:44:27;;;;;;;33.67;16.53;;;0.80;99.90;;;1.42;100.00;98809.25;5047519;28;21146;-75
2023/03/04 06:46:59;;;;;;;29.23;15.33;;;0.90;99.90;;;1.45;100.00;98809.06;5048536;28;20481;-75
2023/03/04 06:49:28;;;;;;;28.03;13.90;;;0.90;99.90;;;1.49;100.00;98807.09;5045320;28;20455;-75
2023/03/04 06:51:58;;;;;;;34.77;14.73;;;1.00;99.90;;;1.53;100.00;98808.47;5045709;28;20463;-75
2023/03/04 06:54:27;;;;;;;27.50;12.70;;;1.00;99.90;;;1.58;100.00;98816.72;5046756;28;20527;-75
2023/03/04 06:56:58;;;;;;;30.13;13.37;;;1.10;99.90;;;1.59;100.00;98812.38;5046536;28;20521;-75
2023/03/04 06:59:28;;;;;;;21.23;11.17;;;1.10;99.90;;;1.62;100.00;98812.16;5046889;28;20553;-75
2023/03/04 07:01:59;;;;;;;29.53;13.30;;;1.10;99.90;;;1.65;100.00;98811.94;5045663;28;20467;-75
2023/03/04 07:04:29;;;;;;;31.37;13.23;;;1.20;99.90;;;1.67;100.00;98820.38;5046375;28;20461;-75
2023/03/04 07:07:00;;;;;;;24.87;12.00;;;1.20;99.90;;;1.70;100.00;98817.59;5046831;28;20496;-75
2023/03/04 07:09:30;;;;;;;29.87;13.23;;;1.20;99.90;;;1.75;100.00;98812.91;5045812;28;20496;-75
2023/03/04 07:12:00;;;;;;;30.83;12.63;;;1.30;99.90;;;1.75;100.00;98818.06;5046170;28;20483;-75
2023/03/04 07:14:30;;;;;;;32.97;12.10;;;1.30;99.90;;;1.79;100.00;98822.06;5044598;28;20476;-75
2023/03/04 07:17:03;;;;;;;28.33;12.20;;;1.30;99.90;;;1.85;100.00;98826.75;5047253;28;20543;-75
2023/03/04 07:19:33;;;;;;;33.40;14.10;;;1.40;99.90;;;1.85;100.00;98829.31;5045319;28;20494;-76
2023/03/04 07:22:02;;;;;;;37.90;12.57;;;1.30;99.90;;;1.88;100.00;98829.94;5046465;28;20467;-75
2023/03/04 07:24:31;;;;;;;22.20;10.47;;;1.30;99.90;;;1.91;100.00;98834.84;5046650;28;20793;-75
2023/03/04 07:27:00;;;;;;;25.17;10.97;;;1.30;99.90;;;1.95;100.00;98832.88;5045368;28;20543;-75
2023/03/04 07:29:31;;;;;;;28.93;13.40;;;1.40;99.90;;;1.98;100.00;98827.47;5044405;28;20475;-75
2023/03/04 07:32:02;;;;;;;31.80;11.43;;;1.40;99.90;;;2.00;100.00;98834.19;5045768;28;20468;-75
2023/03/04 07:34:32;;;;;;;26.30;12.20;;;1.50;99.90;;;2.03;100.00;98825.41;5050247;28;20467;-75
2023/03/04 07:37:02;;;;;;;31.23;14.07;;;1.50;99.90;;;2.07;100.00;98829.41;5049330;28;20475;-75
2023/03/04 07:39:33;;;;;;;26.17;11.87;;;1.50;99.90;;;2.09;100.00;98839.59;5051097;28;20500;-75
2023/03/04 07:42:04;;;;;;;22.13;10.73;;;1.50;99.90;;;2.11;100.00;98828.22;5049850;28;20474;-75
2023/03/04 07:44:34;;;;;;;37.27;12.50;;;1.50;99.90;;;2.17;100.00;98830.34;5049305;28;20465;-75
2023/03/04 07:47:05;;;;;;;25.30;11.37;;;1.70;99.90;;;2.20;100.00;98840.44;5048442;28;20482;-75
2023/03/04 07:49:34;;;;;;;25.63;11.50;;;1.60;99.90;;;2.25;100.00;98838.34;5049476;28;20977;-75
2023/03/04 07:52:04;;;;;;;24.07;10.30;;;1.70;99.90;;;2.28;100.00;98832.94;5049425;28;21755;-75
2023/03/04 07:54:34;;;;;;;27.93;10.37;;;1.70;99.90;;;2.30;100.00;98832.81;5050519;28;20554;-75
2023/03/04 07:57:03;;;;;;;26.13;11.50;;;1.80;99.90;;;2.34;100.00;98832.47;5049790;28;20463;-75
2023/03/04 07:59:33;;;;;;;25.37;10.23;;;1.80;99.90;;;2.37;100.00;98827.09;5049630;28;21010;-75
2023/03/04 08:02:04;;;;;;;26.00;9.43;;;1.80;99.90;;;2.41;100.00;98828.50;5050525;28;20468;-75
2023/03/04 08:04:33;;;;;;;21.93;9.10;;;1.90;99.90;;;2.45;100.00;98827.34;5048923;28;20458;-75
2023/03/04 08:07:03;;;;;;;23.80;10.73;;;1.90;99.90;;;2.49;100.00;98831.31;5049802;28;20889;-75
2023/03/04 08:09:34;;;;;;;26.50;9.50;;;2.00;99.90;;;2.53;100.00;98837.88;5049970;28;20469;-76
2023/03/04 08:12:04;;;;;;;27.80;10.20;;;2.00;99.90;;;2.59;100.00;98831.44;5049838;28;20552;-75
2023/03/04 08:14:34;;;;;;;28.87;10.83;;;2.00;99.90;;;2.64;100.00;98831.09;5049156;28;20467;-76
2023/03/04 08:17:05;;;;;;;27.97;10.23;;;2.00;99.90;;;2.65;100.00;98828.38;5050343;28;20518;-75
2023/03/04 08:19:34;;;;;;;22.20;8.57;;;2.10;99.90;;;2.67;100.00;98825.69;5049571;28;20502;-75
2023/03/04 08:22:04;;;;;;;23.93;9.10;;;2.20;99.90;;;2.73;100.00;98838.94;5050050;28;20461;-75
2023/03/04 08:24:34;;;;;;;27.13;8.57;;;2.10;99.90;;;2.73;100.00;98831.19;5049063;28;20935;-75
2023/03/04 08:27:05;;;;;;;25.60;9.13;;;2.10;99.90;;;2.79;100.00;98829.88;5049668;28;20954;-75
2023/03/04 08:29:34;;;;;;;25.07;9.03;;;2.20;99.90;;;2.84;100.00;98828.63;5048815;28;20473;-75
2023/03/04 08:32:05;;;;;;;19.77;8.30;;;2.30;99.90;;;2.89;100.00;98833.41;5049599;28;20483;-75
2023/03/04 08:34:35;;;;;;;27.60;8.00;;;2.40;99.90;;;2.91;100.00;98836.69;5048585;28;20494;-75
2023/03/04 08:37:03;;;;;;;24.90;8.10;;;2.40;99.90;;;2.93;100.00;98845.97;5050930;28;20465;-76
2023/03/04 08:39:34;;;;;;;13.20;6.70;;;2.50;99.90;;;2.94;100.00;98828.72;5049509;28;20489;-75
2023/03/04 08:42:05;;;;;;;20.57;7.50;;;2.50;99.90;;;2.97;100.00;98828.47;5050159;28;20445;-75
2023/03/04 08:44:35;;;;;;;21.30;7.77;;;2.50;99.90;;;2.99;100.00;98836.91;5049404;28;20861;-76
2023/03/04 08:47:09;;;;;;;30.43;7.53;;;2.40;99.90;;;2.97;100.00;98831.88;5049182;28;20483;-75
2023/03/04 08:49:38;;;;;;;26.97;7.60;;;2.60;99.90;;;3.01;100.00;98848.78;5049649;28;20488;-75
2023/03/04 08:52:09;;;;;;;19.37;7.97;;;2.50;99.90;;;3.07;100.00;98844.88;5049249;28;20457;-75
2023/03/04 08:54:38;;;;;;;18.30;7.03;;;2.60;99.90;;;3.09;100.00;98844.78;5048409;28;21027;-75
2023/03/04 08:57:07;;;;;;;18.00;6.57;;;2.60;99.90;;;3.13;100.00;98846.97;5047644;28;20487;-75
2023/03/04 08:59:37;;;;;;;13.90;6.50;;;2.60;99.90;;;3.17;100.00;98838.06;5048868;28;20530;-75
2023/03/04 09:02:09;;;;;;;17.50;6.50;;;2.70;99.90;;;3.21;100.00;98844.63;5047980;28;20501;-76
2023/03/04 09:04:40;;;;;;;24.00;6.77;;;2.70;99.90;;;3.26;100.00;98850.25;5048844;28;20453;-75
2023/03/04 09:07:10;;;;;;;31.03;8.07;;;2.70;99.90;;;3.30;100.00;98841.31;5047485;28;20458;-75
2023/03/04 09:09:39;;;;;;;14.00;7.20;;;2.70;99.90;;;3.35;100.00;98844.34;5048329;28;20979;-75
2023/03/04 09:12:10;;;;;;;26.03;7.30;;;2.70;99.90;;;3.39;100.00;98850.94;5046418;28;20523;-75
2023/03/04 09:14:39;;;;;;;21.20;7.17;;;2.80;99.90;;;3.39;100.00;98848.34;5047890;28;20893;-75
2023/03/04 09:17:12;;;;;;;11.63;6.27;;;2.80;99.90;;;3.42;100.00;98842.94;5048199;28;20466;-75
2023/03/04 09:19:42;;;;;;;16.13;6.93;;;3.00;99.90;;;3.43;100.00;98849.75;5048028;28;20564;-75
2023/03/04 09:22:12;;;;;;;19.07;7.10;;;3.00;99.90;;;3.46;100.00;98848.66;5046924;28;20501;-75
2023/03/04 09:24:41;;;;;;;13.43;7.00;;;3.00;99.90;;;3.50;100.00;98856.06;5049163;28;20524;-75
2023/03/04 09:27:11;;;;;;;14.93;7.03;;;2.90;99.90;;;3.53;100.00;98850.66;5049628;28;20495;-75
2023/03/04 09:29:41;;;;;;;19.50;7.27;;;3.00;99.90;;;3.51;100.00;98855.09;5048429;28;20461;-76
2023/03/04 09:32:11;;;;;;;24.03;7.00;;;3.00;99.90;;;3.47;100.00;98840.78;5046899;28;20556;-75
2023/03/04 09:34:40;;;;;;;16.17;5.97;;;2.90;99.90;;;3.52;100.00;98856.75;5047992;28;20505;-75
2023/03/04 09:37:09;;;;;;;21.43;7.67;;;3.10;99.90;;;3.55;100.00;98859.09;5047380;28;20457;-75
2023/03/04 09:39:40;;;;;;;15.07;5.60;;;3.00;99.90;;;3.59;100.00;98854.50;5047256;28;20482;-75
2023/03/04 09:42:19;;;;;;;19.20;7.50;;;3.20;99.90;;;3.61;100.00;98860.34;5046502;28;20596;-76
2023/03/04 09:44:50;;;;;;;21.83;7.70;;;3.20;99.90;;;3.62;100.00;98858.59;5047823;28;20462;-76
2023/03/04 09:47:23;;;;;;;16.43;7.37;;;3.20;99.90;;;3.64;100.00;98856.72;5048087;28;20997;-75
2023/03/04 09:49:58;;;;;;;20.10;6.60;;;3.10;99.90;;;3.64;100.00;98852.38;5047823;28;20469;-76
2023/03/04 09:52:51;;;;;;;19.33;7.97;;;3.10;99.90;;;3.66;100.00;98855.66;5048041;28;20469;-75
2023/03/04 09:55:26;;;;;;;19.23;7.77;;;3.10;99.90;;;3.69;100.00;98846.81;5046821;28;20975;-75
2023/03/04 09:58:03;;;;;;;20.87;7.27;;;3.00;99.90;;;3.73;100.00;98850.78;5047890;28;20495;-75
2023/03/04 10:00:40;;;;;;;30.50;7.67;;;3.20;99.90;;;3.76;100.00;98845.38;5048690;28;20562;-75
2023/03/04 10:03:20;;;;;;;22.00;8.30;;;3.20;99.90;;;3.75;100.00;98854.88;5046628;28;20467;-75
2023/03/04 10:05:56;;;;;;;21.33;7.00;;;3.20;99.90;;;3.81;100.00;98851.00;5047211;28;20519;-75
2023/03/04 10:08:38;;;;;;;28.87;9.10;;;3.30;99.90;;;3.84;100.00;98851.56;5047118;28;20519;-75
2023/03/04 10:11:16;;;;;;;20.60;6.73;;;3.40;99.90;;;3.86;100.00;98851.44;5047805;28;21058;-75
2023/03/04 10:14:03;;;;;;;23.33;7.43;;;3.40;99.90;;;3.84;100.00;98854.16;5047079;28;20461;-75
2023/03/04 10:16:41;;;;;;;15.20;6.50;;;3.50;99.90;;;3.85;100.00;98847.22;5049100;28;20463;-75
2023/03/04 10:19:30;;;;;;;16.53;5.17;;;3.40;99.90;;;3.85;100.00;98844.63;5047945;28;20460;-75
2023/03/04 10:21:59;;;;;;;30.97;7.70;;;3.30;99.90;;;3.89;100.00;98852.00;5046361;28;20589;-75
2023/03/04 10:24:32;;;;;;;15.20;5.90;;;3.30;99.90;;;3.94;100.00;98857.63;5047866;28;20592;-75
2023/03/04 10:27:10;;;;;;;22.33;7.60;;;3.40;99.90;;;3.98;100.00;98847.84;5046846;28;20464;-75